createdAt,value
2023-01-15T00:01:46.473Z,79.19
2023-01-15T00:04:13.831Z,78.79
2023-01-15T00:06:42.551Z,78.88
2023-01-15T00:09:13.863Z,79.24
2023-01-15T00:11:41.120Z,79.04
2023-01-15T00:14:08.264Z,79.07
2023-01-15T00:16:35.522Z,79.11
2023-01-15T00:19:04.633Z,79.21
2023-01-15T00:21:31.880Z,79.23
2023-01-15T00:24:17.958Z,79.30
2023-01-15T00:27:03.847Z,79.53
2023-01-15T00:29:32.430Z,79.70
2023-01-15T00:32:02.120Z,79.71
2023-01-15T00:34:31.446Z,79.59
2023-01-15T00:36:59.098Z,79.78
2023-01-15T00:39:26.964Z,79.75
2023-01-15T00:41:54.761Z,80.18
2023-01-15T00:44:22.101Z,80.42
2023-01-15T00:46:51.710Z,80.36
2023-01-15T00:49:21.297Z,80.33
2023-01-15T00:51:50.291Z,80.27
2023-01-15T00:54:17.987Z,80.05
2023-01-15T00:56:45.413Z,80.23
2023-01-15T00:59:12.873Z,80.35
2023-01-15T01:01:40.512Z,80.46
2023-01-15T01:04:07.985Z,80.44
2023-01-15T01:06:35.547Z,80.35
2023-01-15T01:09:19.795Z,80.33
2023-01-15T01:11:49.094Z,80.16
2023-01-15T01:14:16.245Z,80.28
2023-01-15T01:16:44.210Z,80.37
2023-01-15T01:19:16.583Z,80.67
2023-01-15T01:21:44.963Z,80.56
2023-01-15T01:24:13.357Z,80.61
2023-01-15T01:26:41.014Z,80.32
2023-01-15T01:29:08.152Z,80.40
2023-01-15T01:31:35.382Z,80.34
2023-01-15T01:34:02.659Z,80.37
2023-01-15T01:36:34.425Z,80.78
2023-01-15T01:39:02.071Z,80.85
2023-01-15T01:41:29.223Z,80.69
2023-01-15T01:44:09.213Z,80.72
2023-01-15T01:46:36.748Z,80.70
2023-01-15T01:49:05.314Z,80.61
2023-01-15T01:51:38.221Z,80.93
2023-01-15T01:54:05.386Z,81.25
2023-01-15T01:56:33.629Z,81.20
2023-01-15T01:59:01.511Z,81.32
2023-01-15T02:01:28.774Z,81.09
2023-01-15T02:03:56.201Z,81.09
2023-01-15T02:06:24.854Z,80.98
2023-01-15T02:08:52.466Z,81.14
2023-01-15T02:11:21.841Z,81.22
2023-01-15T02:13:52.346Z,81.48
2023-01-15T02:16:51.991Z,81.22
2023-01-15T02:19:41.767Z,81.02
2023-01-15T02:22:39.123Z,81.06
2023-01-15T02:25:17.843Z,81.25
2023-01-15T02:27:55.849Z,81.31
2023-01-15T02:30:28.570Z,81.52
2023-01-15T02:33:01.724Z,81.52
2023-01-15T02:35:40.442Z,81.27
2023-01-15T02:38:11.587Z,81.22
2023-01-15T02:40:39.133Z,81.25
2023-01-15T02:43:06.301Z,81.26
2023-01-15T02:45:35.042Z,81.55
2023-01-15T02:48:09.124Z,81.46
2023-01-15T02:50:38.245Z,81.21
2023-01-15T02:53:08.221Z,81.20
2023-01-15T02:55:42.516Z,81.17
2023-01-15T02:58:12.591Z,81.21
2023-01-15T03:00:44.639Z,81.31
2023-01-15T03:03:22.395Z,81.15
2023-01-15T03:05:54.768Z,81.01
2023-01-15T03:08:21.920Z,80.89
2023-01-15T03:11:12.319Z,80.58
2023-01-15T03:13:53.598Z,80.76
2023-01-15T03:16:39.983Z,80.83
2023-01-15T03:19:14.007Z,81.10
2023-01-15T03:21:49.964Z,81.45
2023-01-15T03:24:21.758Z,81.24
2023-01-15T03:26:48.979Z,81.15
2023-01-15T03:29:16.136Z,81.14
2023-01-15T03:31:45.118Z,81.25
2023-01-15T03:34:12.363Z,81.10
2023-01-15T03:36:40.843Z,81.17
2023-01-15T03:39:08.304Z,81.14
2023-01-15T03:42:23.794Z,81.19
2023-01-15T03:45:25.651Z,81.13
2023-01-15T03:47:56.901Z,81.02
2023-01-15T03:50:33.586Z,80.58
2023-01-15T03:53:08.001Z,80.91
2023-01-15T03:55:55.425Z,80.90
2023-01-15T03:58:29.676Z,81.27
2023-01-15T04:01:00.091Z,81.30
2023-01-15T04:03:29.172Z,81.07
2023-01-15T04:05:58.243Z,80.98
2023-01-15T04:08:26.944Z,81.15
2023-01-15T04:10:58.424Z,81.24
2023-01-15T04:13:31.217Z,81.46
2023-01-15T04:15:58.926Z,81.57
2023-01-15T04:18:26.492Z,81.40
2023-01-15T04:20:55.984Z,81.28
2023-01-15T04:23:23.545Z,81.26
2023-01-15T04:25:50.805Z,81.11
2023-01-15T04:28:18.054Z,81.26
2023-01-15T04:30:45.365Z,81.39
2023-01-15T04:33:12.556Z,81.31
2023-01-15T04:35:39.715Z,81.14
2023-01-15T04:38:06.857Z,81.26
2023-01-15T04:40:52.785Z,81.34
2023-01-15T04:43:38.433Z,81.14
2023-01-15T04:46:05.518Z,81.26
2023-01-15T04:48:32.621Z,81.59
2023-01-15T04:51:04.417Z,81.40
2023-01-15T04:53:31.748Z,81.48
2023-01-15T04:56:02.991Z,81.45
2023-01-15T04:58:30.130Z,81.43
2023-01-15T05:00:57.622Z,81.46
2023-01-15T05:03:24.948Z,81.70
2023-01-15T05:05:52.171Z,81.72
2023-01-15T05:08:19.549Z,81.69
2023-01-15T05:10:46.712Z,81.49
2023-01-15T05:13:13.925Z,81.63
2023-01-15T05:15:42.985Z,81.66
2023-01-15T05:18:10.411Z,81.77
2023-01-15T05:20:37.754Z,81.84
2023-01-15T05:23:04.899Z,82.11
2023-01-15T05:25:32.156Z,81.97
2023-01-15T05:27:59.300Z,81.84
2023-01-15T05:30:26.462Z,81.78
2023-01-15T05:32:53.704Z,82.03
2023-01-15T05:35:20.859Z,82.23
2023-01-15T05:37:48.001Z,82.27
2023-01-15T05:40:15.159Z,82.22
2023-01-15T05:42:42.413Z,82.07
2023-01-15T05:45:10.064Z,82.20
2023-01-15T05:47:37.326Z,82.30
2023-01-15T05:50:05.129Z,82.54
2023-01-15T05:52:32.272Z,82.57
2023-01-15T05:54:59.481Z,82.56
2023-01-15T05:57:26.536Z,82.33
2023-01-15T05:59:55.364Z,82.49
2023-01-15T06:02:23.171Z,82.36
2023-01-15T06:04:50.435Z,82.75
2023-01-15T06:07:20.406Z,82.96
2023-01-15T06:09:47.514Z,82.86
2023-01-15T06:12:14.654Z,82.62
2023-01-15T06:14:41.797Z,82.80
2023-01-15T06:17:09.056Z,82.78
2023-01-15T06:19:36.100Z,83.11
2023-01-15T06:22:04.169Z,83.10
2023-01-15T06:24:31.329Z,82.74
2023-01-15T06:26:58.473Z,82.84
2023-01-15T06:29:25.669Z,82.90
2023-01-15T06:31:52.770Z,82.86
2023-01-15T06:34:20.017Z,83.21
2023-01-15T06:36:47.174Z,83.02
2023-01-15T06:39:14.432Z,82.82
2023-01-15T06:42:00.315Z,83.03
2023-01-15T06:44:46.401Z,82.77
2023-01-15T06:47:22.385Z,82.69
2023-01-15T06:49:51.790Z,83.06
2023-01-15T06:52:19.020Z,83.01
2023-01-15T06:54:46.186Z,82.85
2023-01-15T06:57:13.649Z,83.00
2023-01-15T06:59:40.871Z,82.77
2023-01-15T07:02:08.189Z,83.10
2023-01-15T07:04:35.299Z,83.24
2023-01-15T07:07:02.528Z,83.35
2023-01-15T07:09:29.897Z,83.09
2023-01-15T07:11:57.131Z,83.13
2023-01-15T07:14:25.834Z,83.21
2023-01-15T07:16:53.293Z,83.16
2023-01-15T07:19:20.817Z,83.10
2023-01-15T07:21:49.211Z,83.11
2023-01-15T07:24:17.187Z,83.28
2023-01-15T07:26:45.934Z,83.06
2023-01-15T07:29:13.841Z,83.00
2023-01-15T07:31:41.842Z,83.15
2023-01-15T07:34:09.156Z,83.49
2023-01-15T07:36:37.054Z,83.32
2023-01-15T07:39:05.856Z,83.15
2023-01-15T07:41:52.068Z,82.90
2023-01-15T07:44:39.636Z,83.06
2023-01-15T07:47:39.370Z,83.02
2023-01-15T07:50:09.444Z,83.05
2023-01-15T07:52:36.926Z,82.99
2023-01-15T07:55:04.589Z,82.65
2023-01-15T07:57:31.792Z,82.60
2023-01-15T07:59:58.994Z,82.64
2023-01-15T08:02:26.617Z,82.81
2023-01-15T08:04:53.723Z,82.99
2023-01-15T08:07:20.851Z,83.11
2023-01-15T08:09:48.095Z,83.24
2023-01-15T08:12:34.009Z,83.22
2023-01-15T08:15:13.713Z,82.86
2023-01-15T08:17:42.952Z,83.25
2023-01-15T08:20:13.096Z,83.17
2023-01-15T08:22:41.534Z,83.25
2023-01-15T08:25:09.584Z,83.22
2023-01-15T08:27:37.780Z,82.94
2023-01-15T08:30:06.061Z,82.78
2023-01-15T08:32:33.204Z,83.09
2023-01-15T08:35:00.578Z,83.23
2023-01-15T08:37:27.805Z,83.43
2023-01-15T08:39:55.158Z,83.11
2023-01-15T08:42:22.826Z,82.96
2023-01-15T08:44:50.077Z,82.80
2023-01-15T08:47:17.846Z,83.07
2023-01-15T08:49:46.627Z,82.73
2023-01-15T08:52:14.492Z,82.97
2023-01-15T08:54:42.304Z,82.62
2023-01-15T08:57:10.122Z,82.64
2023-01-15T08:59:39.013Z,82.51
2023-01-15T09:02:06.435Z,82.68
2023-01-15T09:04:33.739Z,82.68
2023-01-15T09:07:01.261Z,82.48
2023-01-15T09:09:28.634Z,82.34
2023-01-15T09:11:55.679Z,82.18
2023-01-15T09:14:56.042Z,81.85
2023-01-15T09:17:09.865Z,81.91
2023-01-15T09:19:39.664Z,82.13
2023-01-15T09:22:06.914Z,82.06
2023-01-15T09:24:34.121Z,81.86
2023-01-15T09:27:01.346Z,81.44
2023-01-15T09:29:28.990Z,81.27
2023-01-15T09:31:56.169Z,81.15
2023-01-15T09:34:23.379Z,80.93
2023-01-15T09:36:51.595Z,81.00
2023-01-15T09:39:18.715Z,81.08
2023-01-15T09:42:04.585Z,81.02
2023-01-15T09:44:44.132Z,80.41
2023-01-15T09:47:24.299Z,80.34
2023-01-15T09:50:30.341Z,80.53
2023-01-15T09:53:25.296Z,80.39
2023-01-15T09:55:52.624Z,80.61
2023-01-15T09:58:21.964Z,80.18
2023-01-15T10:00:50.793Z,80.47
2023-01-15T10:03:25.831Z,80.17
2023-01-15T10:06:07.102Z,79.94
2023-01-15T10:08:37.679Z,79.85
2023-01-15T10:11:11.948Z,80.06
2023-01-15T10:13:42.171Z,79.83
2023-01-15T10:16:10.920Z,79.93
2023-01-15T10:18:39.337Z,79.85
2023-01-15T10:21:15.600Z,79.80
2023-01-15T10:24:04.162Z,79.48
2023-01-15T10:26:56.705Z,79.39
2023-01-15T10:29:48.831Z,79.58
2023-01-15T10:32:19.391Z,79.31
2023-01-15T10:35:08.429Z,79.24
2023-01-15T10:37:50.731Z,79.21
2023-01-15T10:40:55.875Z,78.99
2023-01-15T10:43:49.113Z,78.86
2023-01-15T10:46:22.516Z,79.13
2023-01-15T10:48:51.017Z,79.32
2023-01-15T10:51:22.198Z,78.96
2023-01-15T10:53:59.479Z,79.19
2023-01-15T10:56:42.560Z,78.97
2023-01-15T10:59:15.857Z,79.16
2023-01-15T11:01:43.135Z,78.94
2023-01-15T11:04:13.740Z,79.20
2023-01-15T11:06:40.992Z,79.25
2023-01-15T11:09:16.535Z,79.02
2023-01-15T11:12:00.853Z,78.67
2023-01-15T11:14:57.531Z,78.67
2023-01-15T11:17:55.503Z,78.85
2023-01-15T11:20:36.166Z,79.13
2023-01-15T11:23:19.504Z,79.30
2023-01-15T11:25:51.881Z,79.21
2023-01-15T11:28:21.287Z,79.01
2023-01-15T11:30:55.828Z,78.90
2023-01-15T11:33:28.164Z,78.97
2023-01-15T11:36:21.985Z,78.81
2023-01-15T11:38:50.033Z,78.81
2023-01-15T11:41:26.321Z,79.01
2023-01-15T11:44:18.877Z,79.64
2023-01-15T11:47:05.442Z,79.20
2023-01-15T11:49:51.419Z,79.01
2023-01-15T12:00:04.693Z,79.37
2023-01-15T12:02:51.306Z,79.43
2023-01-15T12:05:26.185Z,79.31
2023-01-15T12:07:55.843Z,79.10
2023-01-15T12:10:45.875Z,79.37
2023-01-15T12:13:18.814Z,79.25
2023-01-15T12:15:55.472Z,79.07
2023-01-15T12:18:33.656Z,79.18
2023-01-15T12:21:05.559Z,79.31
2023-01-15T12:23:45.303Z,79.21
2023-01-15T12:26:28.789Z,79.29
2023-01-15T12:29:05.057Z,79.79
2023-01-15T12:31:40.729Z,79.64
2023-01-15T12:34:38.820Z,79.71
2023-01-15T12:37:10.279Z,79.55
2023-01-15T12:39:44.313Z,79.57
2023-01-15T12:42:31.938Z,79.77
2023-01-15T12:45:01.186Z,79.38
2023-01-15T12:47:48.939Z,79.84
2023-01-15T12:50:22.626Z,79.91
2023-01-15T12:52:52.633Z,79.79
2023-01-15T12:55:21.225Z,79.57
2023-01-15T12:57:54.262Z,79.47
2023-01-15T13:00:33.206Z,79.56
2023-01-15T13:03:12.820Z,79.43
2023-01-15T13:05:47.961Z,79.81
2023-01-15T16:36:40.629Z,88.30
2023-01-15T16:39:24.569Z,88.63
2023-01-15T16:41:57.085Z,88.58
2023-01-15T16:44:39.634Z,88.69
2023-01-15T16:47:07.630Z,87.95
2023-01-15T16:49:38.226Z,87.62
2023-01-15T16:52:35.424Z,86.78
2023-01-15T16:55:03.045Z,86.62
2023-01-15T16:57:35.224Z,86.55
2023-01-15T17:00:06.146Z,85.78
2023-01-15T17:02:44.667Z,85.50
2023-01-15T17:05:22.278Z,84.80
2023-01-15T17:07:50.059Z,84.34
2023-01-15T17:10:26.587Z,84.58
2023-01-15T17:12:56.067Z,84.57
2023-01-15T17:15:27.313Z,83.96
2023-01-15T17:17:55.014Z,83.91
2023-01-15T17:20:27.595Z,83.70
2023-01-15T17:22:55.137Z,83.77
2023-01-15T17:25:33.274Z,83.73
2023-01-15T17:28:02.137Z,83.69
2023-01-15T17:30:31.163Z,83.64
2023-01-15T17:33:03.619Z,83.67
2023-01-15T17:35:32.901Z,83.44
2023-01-15T17:38:00.063Z,83.28
2023-01-15T17:40:27.722Z,83.22
2023-01-15T17:42:55.885Z,83.11
2023-01-15T17:45:28.065Z,83.39
2023-01-15T17:47:55.407Z,83.43
2023-01-15T17:50:23.417Z,83.22
2023-01-15T17:52:50.638Z,82.70
2023-01-15T17:55:39.285Z,82.61
2023-01-15T17:58:27.427Z,82.70
2023-01-15T18:01:13.355Z,82.65
2023-01-15T18:04:03.716Z,82.50
2023-01-15T18:13:44.624Z,82.06
2023-01-15T18:16:13.162Z,81.40
2023-01-15T18:18:40.765Z,81.87
2023-01-15T18:21:08.027Z,81.96
2023-01-15T18:23:39.829Z,81.74
2023-01-15T18:26:07.863Z,81.86
2023-01-15T18:28:36.646Z,82.03
2023-01-15T18:31:04.152Z,82.17
2023-01-15T18:33:31.552Z,82.36
2023-01-15T18:36:13.139Z,81.88
2023-01-15T18:38:44.062Z,81.83
2023-01-15T18:41:13.271Z,81.79
2023-01-15T18:43:59.592Z,81.66
2023-01-15T18:46:48.664Z,81.98
2023-01-15T18:49:16.090Z,82.15
2023-01-15T18:51:43.961Z,82.33
2023-01-15T18:54:13.770Z,82.55
2023-01-15T18:56:43.144Z,82.57
2023-01-15T18:59:12.205Z,83.12
2023-01-15T19:01:40.590Z,82.93
2023-01-15T19:04:11.187Z,83.17
2023-01-15T19:06:39.892Z,83.89
2023-01-15T19:09:08.753Z,85.08
2023-01-15T19:11:36.927Z,84.19
2023-01-15T19:14:22.918Z,84.34
2023-01-15T19:17:08.906Z,84.52
2023-01-15T19:19:36.220Z,84.88
2023-01-15T19:22:21.959Z,85.41
2023-01-15T19:24:49.322Z,85.69
2023-01-15T19:27:17.505Z,86.05
2023-01-15T19:29:45.037Z,85.85
2023-01-15T19:32:13.002Z,85.78
2023-01-15T19:34:40.252Z,86.08
2023-01-15T19:37:08.118Z,85.84
2023-01-15T19:39:35.802Z,85.89
2023-01-15T19:42:21.777Z,86.07
2023-01-15T19:45:08.383Z,86.42
2023-01-15T19:47:56.012Z,87.08
2023-01-15T19:50:37.827Z,87.73
2023-01-15T19:53:05.976Z,87.50
2023-01-15T19:55:35.136Z,87.17
2023-01-15T19:58:04.544Z,87.52
2023-01-15T20:00:33.759Z,87.72
2023-01-15T20:03:03.122Z,87.67
2023-01-15T20:05:31.978Z,87.55
2023-01-15T20:08:00.040Z,87.30
2023-01-15T20:10:28.775Z,87.25
2023-01-15T20:13:14.827Z,87.49
2023-01-15T20:15:44.119Z,87.85
2023-01-15T20:18:12.078Z,87.87
2023-01-15T20:20:40.153Z,87.98
2023-01-15T20:23:08.028Z,88.05
2023-01-15T20:25:36.967Z,87.70
2023-01-15T20:28:06.859Z,88.00
2023-01-15T20:30:34.383Z,87.91
2023-01-15T20:33:03.917Z,87.20
2023-01-15T20:35:34.229Z,87.41
2023-01-15T20:38:04.139Z,87.62
2023-01-15T20:40:33.110Z,87.36
2023-01-15T20:43:19.521Z,87.18
2023-01-15T20:45:47.652Z,87.09
2023-01-15T20:48:15.354Z,87.22
2023-01-15T20:51:01.127Z,87.32
2023-01-15T20:53:33.789Z,87.29
2023-01-15T20:56:04.657Z,87.02
2023-01-15T20:58:32.000Z,86.55
2023-01-15T21:01:05.931Z,86.83
2023-01-15T21:03:33.238Z,86.30
2023-01-15T21:06:03.797Z,86.04
2023-01-15T21:08:33.865Z,86.37
2023-01-15T21:11:01.099Z,86.25
2023-01-15T21:13:28.324Z,86.20
2023-01-15T21:15:56.600Z,86.15
2023-01-15T21:18:24.709Z,86.37
2023-01-15T21:20:52.126Z,85.73
2023-01-15T21:23:19.173Z,85.65
2023-01-15T21:25:46.322Z,85.74
2023-01-15T21:28:13.678Z,85.83
2023-01-15T21:30:41.543Z,85.84
2023-01-15T21:33:09.056Z,85.93
2023-01-15T21:35:40.167Z,85.66
2023-01-15T21:38:08.291Z,85.21
2023-01-15T21:40:38.639Z,85.24
2023-01-15T21:43:24.945Z,85.16
2023-01-15T21:45:52.126Z,85.25
2023-01-15T21:48:19.594Z,85.12
2023-01-15T21:50:46.814Z,85.23
2023-01-15T21:53:13.952Z,84.80
2023-01-15T21:55:48.694Z,85.10
2023-01-15T21:58:16.130Z,85.20
2023-01-15T22:00:43.387Z,85.26
2023-01-15T22:03:12.477Z,85.13
2023-01-15T22:05:39.625Z,84.97
2023-01-15T22:08:08.744Z,85.39
2023-01-15T22:10:35.876Z,85.35
2023-01-15T22:13:03.035Z,85.61
2023-01-15T22:15:30.281Z,85.72
2023-01-15T22:17:58.244Z,85.60
2023-01-15T22:20:25.600Z,85.61
2023-01-15T22:22:52.744Z,85.89
2023-01-15T22:25:20.101Z,85.75
2023-01-15T22:27:47.149Z,85.79
2023-01-15T22:30:15.859Z,85.66
2023-01-15T22:32:43.105Z,85.56
2023-01-15T22:35:11.054Z,85.73
2023-01-15T22:37:38.305Z,85.55
2023-01-15T22:40:06.598Z,85.57
2023-01-15T22:42:33.942Z,85.34
2023-01-15T22:45:01.188Z,85.52
2023-01-15T22:47:28.958Z,85.77
2023-01-15T22:49:56.210Z,86.08
2023-01-15T22:52:25.758Z,86.02
2023-01-15T22:54:53.285Z,85.58
2023-01-15T22:57:20.621Z,85.87
2023-01-15T22:59:47.879Z,85.84
2023-01-15T23:02:14.976Z,86.33
2023-01-15T23:04:42.118Z,86.11
2023-01-15T23:07:09.674Z,85.62
2023-01-15T23:09:36.669Z,86.07
2023-01-15T23:12:03.929Z,86.35
2023-01-15T23:14:30.931Z,86.06
2023-01-15T23:16:58.041Z,85.95
2023-01-15T23:19:28.007Z,85.83
2023-01-15T23:21:55.348Z,85.67
2023-01-15T23:24:22.355Z,85.21
2023-01-15T23:26:49.401Z,85.52
2023-01-15T23:29:16.507Z,85.43
2023-01-15T23:31:43.528Z,85.17
2023-01-15T23:34:11.460Z,85.38
2023-01-15T23:36:38.844Z,85.73
2023-01-15T23:39:05.942Z,85.49
2023-01-15T23:41:51.555Z,85.08
2023-01-15T23:44:38.200Z,85.79
2023-01-15T23:47:06.344Z,85.35
2023-01-15T23:49:33.373Z,85.16
2023-01-15T23:52:00.471Z,84.99
2023-01-15T23:54:29.075Z,85.10
2023-01-15T23:56:56.536Z,85.49
2023-01-15T23:59:23.919Z,85.40
